Time;durP1;ratioP1;P1;durP2;ratioP2;P2;SDS_P1;SDS_P2;PMS_P1;PMS_P2;Temp;Humidity;BMP_temperature;BMP_pressure;BME280_temperature;BME280_humidity;BME280_pressure;Samples;Min_cycle;Max_cycle;Signal;HPM_P1;HPM_P2
2022/04/25 00:02:12;;;;;;;14.70;5.80;;;;;;;5.88;100.00;100899.13;4916413;28;20035;-77
2022/04/25 00:04:38;;;;;;;17.23;6.72;;;;;;;5.78;100.00;100893.75;4950391;28;20073;-76
2022/04/25 00:07:04;;;;;;;13.77;6.53;;;;;;;5.82;100.00;100897.81;4936873;28;20058;-77
2022/04/25 00:09:35;;;;;;;13.43;6.20;;;;;;;5.82;100.00;100903.00;4924013;28;20105;-77
2022/04/25 00:12:02;;;;;;;15.52;7.30;;;;;;;5.79;100.00;100900.63;4929788;28;20130;-77
2022/04/25 00:14:28;;;;;;;12.70;6.20;;;;;;;5.81;100.00;100906.53;4935537;28;20485;-77
2022/04/25 00:16:56;;;;;;;18.45;6.88;;;;;;;5.82;100.00;100899.53;4932890;28;20031;-77
2022/04/25 00:19:22;;;;;;;11.65;5.90;;;;;;;5.82;100.00;100899.53;4955066;28;20050;-77
2022/04/25 00:21:48;;;;;;;16.23;6.95;;;;;;;5.81;100.00;100901.34;4950287;28;20408;-77
2022/04/25 00:24:14;;;;;;;15.55;6.75;;;;;;;5.77;100.00;100906.88;4922064;28;20039;-77
2022/04/25 00:26:39;;;;;;;16.00;6.88;;;;;;;5.72;100.00;100907.19;4937254;28;20065;-78
2022/04/25 00:29:05;;;;;;;18.75;6.95;;;;;;;5.77;100.00;100906.88;4954043;28;20049;-78
2022/04/25 00:31:30;;;;;;;15.88;6.72;;;;;;;5.74;100.00;100907.91;4907282;28;20134;-77
2022/04/25 00:33:56;;;;;;;20.58;6.72;;;;;;;5.66;100.00;100907.66;4936431;28;20042;-77
2022/04/25 00:36:22;;;;;;;20.08;7.05;;;;;;;5.78;100.00;100911.13;4952560;28;20049;-76
2022/04/25 00:38:47;;;;;;;14.98;6.35;;;;;;;5.77;100.00;100910.31;4935898;28;20037;-76
2022/04/25 00:41:13;;;;;;;20.98;7.35;;;;;;;5.74;100.00;100901.88;4958819;28;20104;-78
2022/04/25 00:43:38;;;;;;;14.68;6.93;;;;;;;5.69;100.00;100912.66;4972053;28;20077;-78
2022/04/25 00:46:05;;;;;;;14.43;6.30;;;;;;;5.72;100.00;100907.19;4941050;28;20129;-76
2022/04/25 00:48:31;;;;;;;13.63;6.40;;;;;;;5.70;100.00;100895.25;4955609;28;20151;-76
2022/04/25 00:50:56;;;;;;;13.30;6.50;;;;;;;5.68;100.00;100899.75;4939183;28;20105;-75
2022/04/25 00:53:22;;;;;;;15.18;7.00;;;;;;;5.68;100.00;100912.75;4936079;28;21402;-76
2022/04/25 00:55:49;;;;;;;13.00;6.70;;;;;;;5.56;100.00;100891.06;4938495;28;20031;-75
2022/04/25 00:58:15;;;;;;;15.80;6.85;;;;;;;5.56;100.00;100904.88;4920940;28;20381;-76
2022/04/25 01:00:41;;;;;;;15.32;6.45;;;;;;;5.60;100.00;100916.72;4944516;28;20035;-76
2022/04/25 01:03:07;;;;;;;15.65;6.88;;;;;;;5.53;100.00;100918.09;4952042;28;20043;-76
2022/04/25 01:05:33;;;;;;;17.70;7.25;;;;;;;5.51;100.00;100906.97;4971373;28;20381;-76
2022/04/25 01:08:01;;;;;;;12.23;6.13;;;;;;;5.51;100.00;100911.34;4951712;28;20827;-76
2022/04/25 01:10:28;;;;;;;16.35;6.68;;;;;;;5.45;100.00;100910.03;4937542;28;20106;-76
2022/04/25 01:12:54;;;;;;;15.48;6.50;;;;;;;5.48;100.00;100912.38;4918100;29;20422;-76
2022/04/25 01:15:22;;;;;;;18.75;6.25;;;;;;;5.39;100.00;100913.06;4953821;28;20065;-77
2022/04/25 01:17:47;;;;;;;15.07;6.15;;;;;;;5.47;100.00;100915.94;4922235;28;20126;-75
2022/04/25 01:20:13;;;;;;;20.10;6.07;;;;;;;5.50;100.00;100915.75;4963090;28;20100;-75
2022/04/25 01:22:44;;;;;;;14.68;6.05;;;;;;;5.50;100.00;100913.13;4928774;28;20034;-76
2022/04/25 01:27:55;;;;;;;11.43;5.50;;;;;;;5.40;100.00;100914.72;4955962;28;20039;-76
2022/04/25 01:30:21;;;;;;;13.90;6.00;;;;;;;5.37;100.00;100917.53;4950356;28;20047;-75
2022/04/25 01:32:46;;;;;;;16.00;6.13;;;;;;;5.35;100.00;100917.66;4952794;28;20042;-76
2022/04/25 01:35:12;;;;;;;16.80;5.70;;;;;;;5.39;100.00;100915.66;4951965;28;20050;-76
2022/04/25 01:37:38;;;;;;;14.52;5.85;;;;;;;5.42;100.00;100918.03;4937163;28;20040;-77
2022/04/25 01:40:04;;;;;;;12.38;5.43;;;;;;;5.32;100.00;100906.63;4936690;28;20092;-77
2022/04/25 01:42:30;;;;;;;12.38;5.95;;;;;;;5.39;100.00;100910.47;4949642;28;20035;-77
2022/04/25 01:44:56;;;;;;;11.23;5.45;;;;;;;5.36;100.00;100910.66;4937373;28;20054;-76
2022/04/25 01:47:23;;;;;;;13.18;5.75;;;;;;;5.41;100.00;100919.81;4948728;28;20770;-77
2022/04/25 01:49:48;;;;;;;16.10;5.55;;;;;;;5.41;100.00;100919.81;4956915;28;20031;-76
2022/04/25 01:52:27;;;;;;;12.10;5.85;;;;;;;5.39;100.00;100931.28;4962542;28;20062;-78
2022/04/25 01:54:53;;;;;;;10.82;5.00;;;;;;;5.42;100.00;100936.25;4963901;28;20041;-76
2022/04/25 01:57:19;;;;;;;9.27;4.88;;;;;;;5.38;100.00;100938.22;4947994;28;20042;-78
2022/04/25 01:59:45;;;;;;;9.13;4.43;;;;;;;5.35;100.00;100922.84;4938841;28;20039;-78
2022/04/25 02:02:12;;;;;;;12.75;5.45;;;;;;;5.33;100.00;100932.53;4954673;28;20045;-77
2022/04/25 02:04:39;;;;;;;10.63;5.25;;;;;;;5.29;100.00;100931.06;4916325;28;20038;-78
2022/04/25 02:07:07;;;;;;;14.88;5.15;;;;;;;5.23;100.00;100932.31;4936216;28;20067;-77
2022/04/25 02:09:34;;;;;;;12.30;5.30;;;;;;;5.25;100.00;100935.69;4938250;28;20043;-77
2022/04/25 02:11:59;;;;;;;9.85;4.68;;;;;;;5.23;100.00;100929.72;4954645;28;20038;-78
2022/04/25 02:14:29;;;;;;;9.70;4.95;;;;;;;5.29;100.00;100935.44;4936222;28;20378;-78
2022/04/25 02:16:57;;;;;;;15.27;5.82;;;;;;;5.25;100.00;100937.44;4949196;28;20409;-78
2022/04/25 02:19:22;;;;;;;13.20;5.05;;;;;;;5.25;100.00;100940.88;4947336;28;20038;-78
2022/04/25 02:21:48;;;;;;;13.50;5.50;;;;;;;5.29;100.00;100938.06;4928166;28;21038;-78
2022/04/25 02:24:14;;;;;;;13.80;4.80;;;;;;;5.25;100.00;100933.09;4954899;28;20472;-78
2022/04/25 02:26:39;;;;;;;11.75;5.15;;;;;;;5.28;100.00;100942.44;4929558;28;20034;-78
2022/04/25 02:29:05;;;;;;;9.57;4.60;;;;;;;5.32;100.00;100941.28;4939610;28;20420;-78
2022/04/25 02:31:31;;;;;;;10.77;4.63;;;;;;;5.20;100.00;100929.13;4939238;28;20092;-78
2022/04/25 02:33:56;;;;;;;11.40;4.20;;;;;;;5.17;100.00;100939.75;4952443;28;20504;-76
2022/04/25 02:36:24;;;;;;;13.90;5.50;;;;;;;5.22;100.00;100945.47;4957142;28;20081;-77
2022/04/25 02:38:50;;;;;;;14.82;4.80;;;;;;;5.15;100.00;100936.41;4938599;28;20069;-77
2022/04/25 02:41:16;;;;;;;13.35;5.25;;;;;;;5.14;100.00;100935.59;4938214;28;20468;-78
2022/04/25 02:43:45;;;;;;;12.48;4.88;;;;;;;5.15;100.00;100944.22;4940442;28;20078;-77
2022/04/25 02:46:13;;;;;;;13.27;4.90;;;;;;;5.14;100.00;100943.41;4935328;28;20057;-77
2022/04/25 02:48:41;;;;;;;10.50;5.22;;;;;;;5.09;100.00;100936.84;4954154;28;20038;-77
2022/04/25 02:51:08;;;;;;;12.05;4.63;;;;;;;5.04;100.00;100943.19;4937601;28;20031;-77
2022/04/25 02:53:34;;;;;;;12.05;4.97;;;;;;;5.03;100.00;100949.34;4923835;28;20042;-76
2022/04/25 02:56:02;;;;;;;12.63;4.65;;;;;;;4.99;100.00;100929.69;4938789;28;20050;-78
2022/04/25 02:58:29;;;;;;;18.55;5.13;;;;;;;4.91;100.00;100929.38;4953065;28;20053;-77
2022/04/25 03:00:55;;;;;;;12.52;4.82;;;;;;;4.94;100.00;100934.38;4939629;28;20057;-77
2022/04/25 03:03:22;;;;;;;12.10;4.95;;;;;;;4.84;100.00;100923.78;4954057;28;20042;-77
2022/04/25 03:05:49;;;;;;;11.38;5.05;;;;;;;4.85;100.00;100932.38;4948654;28;20066;-77
2022/04/25 03:08:17;;;;;;;14.45;4.65;;;;;;;4.88;100.00;100940.00;4921190;28;20042;-77
2022/04/25 03:10:43;;;;;;;13.25;5.45;;;;;;;4.87;100.00;100933.13;4937217;28;20642;-77
2022/04/25 03:13:10;;;;;;;11.82;4.43;;;;;;;4.90;100.00;100937.25;4936768;28;20134;-77
2022/04/25 03:15:39;;;;;;;10.73;5.07;;;;;;;4.86;100.00;100934.88;4950791;28;20033;-77
2022/04/25 03:18:11;;;;;;;13.93;5.10;;;;;;;4.78;100.00;100934.56;4974304;28;20031;-77
2022/04/25 03:20:38;;;;;;;17.38;4.45;;;;;;;4.86;100.00;100945.28;4937085;28;20114;-77
2022/04/25 03:23:05;;;;;;;15.10;5.05;;;;;;;4.83;100.00;100937.69;4927608;28;20057;-77
2022/04/25 03:25:32;;;;;;;16.20;4.70;;;;;;;4.82;100.00;100935.19;4953547;28;20042;-77
2022/04/25 03:27:58;;;;;;;17.30;4.38;;;;;;;4.85;100.00;100935.81;4931811;28;20045;-78
2022/04/25 03:30:24;;;;;;;11.50;4.40;;;;;;;4.84;100.00;100923.78;4934974;28;20046;-76
2022/04/25 03:32:50;;;;;;;15.98;5.13;;;;;;;4.75;100.00;100933.97;4966110;28;20041;-78
2022/04/25 03:35:17;;;;;;;13.70;4.82;;;;;;;4.79;100.00;100931.03;4952862;28;20046;-76
2022/04/25 03:37:44;;;;;;;15.00;4.72;;;;;;;4.69;100.00;100932.63;4951506;28;20448;-76
2022/04/25 03:40:10;;;;;;;15.15;4.63;;;;;;;4.74;100.00;100938.31;4959993;28;20034;-77
2022/04/25 03:42:38;;;;;;;14.20;4.80;;;;;;;4.73;100.00;100933.22;4955871;28;20038;-77
2022/04/25 03:45:11;;;;;;;11.02;4.72;;;;;;;4.60;100.00;100930.63;4949149;28;20038;-76
2022/04/25 03:47:38;;;;;;;13.38;4.53;;;;;;;4.67;100.00;100935.31;4926321;28;20584;-77
2022/04/25 03:50:09;;;;;;;15.95;4.72;;;;;;;4.55;100.00;100930.94;4925870;28;20117;-78
2022/04/25 03:52:38;;;;;;;14.18;5.03;;;;;;;4.53;100.00;100932.78;4947165;28;20088;-76
2022/04/25 03:57:50;;;;;;;18.95;5.22;;;;;;;4.54;100.00;100939.66;4953640;28;20057;-77
2022/04/25 04:00:15;;;;;;;15.45;5.75;;;;;;;4.46;100.00;100937.59;4937569;28;20517;-78
2022/04/25 04:02:41;;;;;;;11.55;5.45;;;;;;;4.48;100.00;100946.09;4953735;28;20047;-77
2022/04/25 04:05:07;;;;;;;11.13;5.05;;;;;;;4.43;100.00;100936.97;4952838;28;20528;-77
2022/04/25 04:07:32;;;;;;;14.40;5.68;;;;;;;4.30;100.00;100931.75;4937486;28;20077;-77
2022/04/25 04:09:59;;;;;;;11.43;5.53;;;;;;;4.40;100.00;100956.16;4937240;28;20126;-77
2022/04/25 04:12:30;;;;;;;15.07;6.00;;;;;;;4.53;100.00;100958.78;4936121;28;20118;-77
2022/04/25 04:14:58;;;;;;;11.82;5.60;;;;;;;4.41;100.00;100957.00;4926896;28;20046;-78
2022/04/25 04:17:24;;;;;;;15.40;6.07;;;;;;;4.41;100.00;100960.44;4957036;28;20039;-77
2022/04/25 04:19:52;;;;;;;12.48;5.53;;;;;;;4.43;100.00;100958.56;4938755;28;20125;-77
2022/04/25 04:22:20;;;;;;;14.65;6.18;;;;;;;4.45;100.00;100964.47;4930842;28;20101;-76
2022/04/25 04:24:45;;;;;;;15.00;5.70;;;;;;;4.43;100.00;100968.13;4960095;28;20034;-77
2022/04/25 04:27:13;;;;;;;9.93;5.90;;;;;;;4.41;100.00;100963.03;4970292;28;20431;-77
2022/04/25 04:29:40;;;;;;;12.95;5.95;;;;;;;4.42;100.00;100961.25;4940416;28;20038;-76
2022/04/25 04:32:07;;;;;;;11.00;6.07;;;;;;;4.43;100.00;100968.13;4953041;28;20134;-77
2022/04/25 04:34:34;;;;;;;9.82;5.75;;;;;;;4.43;100.00;100986.31;4934516;28;20043;-77
2022/04/25 04:37:00;;;;;;;11.38;5.78;;;;;;;4.41;100.00;100963.03;4955164;28;20033;-78
2022/04/25 04:39:26;;;;;;;12.30;5.65;;;;;;;4.54;100.00;100975.19;4961335;28;20087;-77
2022/04/25 04:41:52;;;;;;;12.10;5.53;;;;;;;4.51;100.00;100973.63;4959037;28;20062;-76
2022/04/25 04:44:17;;;;;;;14.07;5.30;;;;;;;4.55;100.00;100984.66;4956319;28;20043;-76
2022/04/25 04:46:43;;;;;;;12.82;5.90;;;;;;;4.42;100.00;100979.44;4936065;28;20035;-78
2022/04/25 04:49:09;;;;;;;9.48;5.28;;;;;;;4.46;100.00;100983.50;4944889;28;20038;-78
2022/04/25 04:51:35;;;;;;;13.85;5.15;;;;;;;4.41;100.00;100989.00;4939991;28;20039;-78
2022/04/25 04:54:02;;;;;;;10.90;5.50;;;;;;;4.36;100.00;100992.81;4961695;28;20058;-80
2022/04/25 04:56:31;;;;;;;16.92;5.68;;;;;;;4.26;100.00;100996.03;4955257;28;20046;-78
2022/04/25 04:59:01;;;;;;;15.07;5.53;;;;;;;4.32;100.00;100999.16;4953358;29;20093;-78
2022/04/25 05:01:27;;;;;;;12.93;5.22;;;;;;;4.23;100.00;100996.22;4938725;28;20071;-78
2022/04/25 05:03:55;;;;;;;11.27;4.88;;;;;;;4.26;100.00;101001.22;4939111;28;20615;-77
2022/04/25 05:06:21;;;;;;;12.13;4.80;;;;;;;4.40;100.00;101000.31;4938695;28;20055;-77
2022/04/25 05:08:47;;;;;;;10.25;4.80;;;;;;;4.42;100.00;101002.81;4953388;28;20097;-79
2022/04/25 05:11:12;;;;;;;8.82;4.95;;;;;;;4.45;100.00;101013.00;4941429;28;20066;-79
2022/04/25 05:13:38;;;;;;;8.82;4.70;;;;;;;4.49;100.00;101019.66;4933670;28;20046;-77
2022/04/25 05:16:04;;;;;;;11.57;4.93;;;;;;;4.55;100.00;101018.44;4970258;28;20031;-77
2022/04/25 05:18:32;;;;;;;10.95;4.63;;;;;;;4.47;100.00;101013.75;4935694;28;20063;-79
2022/04/25 05:20:58;;;;;;;11.63;5.15;;;;;;;4.43;100.00;101017.47;4954084;28;20045;-76
2022/04/25 05:23:25;;;;;;;13.30;4.82;;;;;;;4.54;100.00;101009.81;4916962;28;20035;-79
2022/04/25 05:25:50;;;;;;;13.20;4.93;;;;;;;4.68;100.00;101020.09;4978710;28;20046;-78
2022/04/25 05:28:16;;;;;;;11.73;4.50;;;;;;;4.72;100.00;101023.34;4925339;28;20035;-77
2022/04/25 05:30:44;;;;;;;11.93;4.97;;;;;;;4.83;100.00;101022.63;4941427;28;20035;-77
2022/04/25 05:33:10;;;;;;;12.07;4.82;;;;;;;4.73;100.00;101017.22;4921294;28;20036;-79
2022/04/25 05:35:36;;;;;;;10.90;4.78;;;;;;;4.63;100.00;101018.75;4942528;28;20039;-78
2022/04/25 05:38:10;;;;;;;8.90;5.00;;;;;;;4.89;100.00;101035.22;4943156;28;20267;-76
2022/04/25 05:40:36;;;;;;;12.73;4.18;;;;;;;5.01;100.00;101034.41;4941640;28;20492;-77
2022/04/25 05:43:05;;;;;;;11.20;4.38;;;;;;;5.15;100.00;101043.03;4951031;28;20047;-79
2022/04/25 05:45:31;;;;;;;13.23;4.57;;;;;;;5.20;100.00;101034.00;4926173;28;20055;-79
2022/04/25 05:47:57;;;;;;;7.57;3.92;;;;;;;5.24;100.00;101042.41;4941505;28;20037;-78
2022/04/25 05:53:11;;;;;;;12.15;3.97;;;;;;;5.28;100.00;101050.84;4940926;28;20042;-78
2022/04/25 05:55:37;;;;;;;8.63;3.28;;;;;;;5.26;100.00;101041.38;4958402;28;20038;-78
2022/04/25 05:58:03;;;;;;;8.23;3.63;;;;;;;5.26;100.00;101046.56;4938349;28;20045;-78
2022/04/25 06:00:30;;;;;;;9.95;3.50;;;;;;;5.48;100.00;101042.47;4954617;28;20039;-77
2022/04/25 06:02:56;;;;;;;16.60;4.25;;;;;;;5.66;100.00;101049.00;4940889;28;20042;-78
2022/04/25 06:05:22;;;;;;;12.88;3.72;;;;;;;5.72;100.00;101047.75;4940744;28;20064;-78
2022/04/25 06:07:49;;;;;;;12.73;3.92;;;;;;;5.43;100.00;101055.00;4954801;28;20045;-77
2022/04/25 06:10:17;;;;;;;9.98;4.07;;;;;;;5.28;100.00;101056.03;4972953;28;20093;-75
2022/04/25 06:12:45;;;;;;;8.43;3.30;;;;;;;5.42;100.00;101061.94;4940048;28;20037;-78
2022/04/25 06:15:11;;;;;;;10.13;3.45;;;;;;;5.45;100.00;101064.34;4938220;28;20488;-77
2022/04/25 06:17:37;;;;;;;8.85;3.28;;;;;;;5.62;100.00;101065.78;4953946;28;20106;-76
2022/04/25 06:20:06;;;;;;;9.75;3.70;;;;;;;5.71;100.00;101063.47;4950415;28;20038;-75
2022/04/25 06:22:33;;;;;;;7.95;3.25;;;;;;;5.82;100.00;101061.81;4945952;28;20125;-76
2022/04/25 06:24:59;;;;;;;10.55;3.28;;;;;;;5.86;99.85;101065.03;4922153;28;20099;-77
2022/04/25 06:27:27;;;;;;;7.90;3.58;;;;;;;5.98;99.49;101065.94;4938737;28;20054;-76
2022/04/25 06:29:52;;;;;;;7.60;2.85;;;;;;;6.21;98.26;101065.13;4940709;28;20054;-76
2022/04/25 06:32:19;;;;;;;8.32;2.95;;;;;;;6.24;97.11;101071.91;4939582;28;20065;-77
2022/04/25 06:34:46;;;;;;;11.25;3.17;;;;;;;6.06;97.59;101063.63;4937828;28;20142;-76
2022/04/25 06:37:13;;;;;;;7.78;2.95;;;;;;;6.23;98.50;101068.47;4923665;28;20058;-78
2022/04/25 06:39:39;;;;;;;7.15;3.15;;;;;;;6.48;97.00;101073.66;4920922;28;20042;-78
2022/04/25 06:42:08;;;;;;;6.93;2.67;;;;;;;6.62;95.61;101068.28;4927454;28;20425;-78
2022/04/25 06:44:34;;;;;;;4.53;2.58;;;;;;;6.78;94.36;101062.75;4942925;28;20045;-78
2022/04/25 06:47:00;;;;;;;8.07;2.83;;;;;;;6.80;94.09;101066.09;4972255;28;20038;-78
2022/04/25 06:49:26;;;;;;;5.13;2.70;;;;;;;7.00;93.99;101073.25;4936678;28;20047;-77
2022/04/25 06:51:57;;;;;;;7.85;2.53;;;;;;;7.04;92.82;101073.03;4941080;28;20030;-78
2022/04/25 06:54:24;;;;;;;7.68;2.88;;;;;;;7.14;93.13;101071.38;4933600;28;20496;-77
2022/04/25 06:56:51;;;;;;;9.13;2.80;;;;;;;7.36;91.61;101073.19;4970707;28;20027;-77
2022/04/25 06:59:18;;;;;;;7.03;2.45;;;;;;;7.54;91.03;101084.00;4933906;28;20074;-77
2022/04/25 07:01:43;;;;;;;12.45;2.95;;;;;;;7.18;91.62;101076.25;4938119;28;20023;-78
2022/04/25 07:04:11;;;;;;;4.80;2.50;;;;;;;7.44;91.01;101077.81;4965464;28;20034;-76
2022/04/25 07:06:38;;;;;;;4.65;2.30;;;;;;;7.18;89.55;101068.44;4937529;28;20040;-78
2022/04/25 07:09:04;;;;;;;4.90;2.45;;;;;;;7.38;90.97;101079.13;4955399;28;20035;-77
2022/04/25 07:11:30;;;;;;;8.13;2.53;;;;;;;7.76;89.06;101080.53;4952219;28;20094;-77
2022/04/25 07:13:56;;;;;;;7.68;2.83;;;;;;;7.88;88.63;101069.16;4957107;28;20027;-78
2022/04/25 07:16:24;;;;;;;8.52;2.88;;;;;;;7.85;87.24;101082.44;4947512;28;20050;-77
2022/04/25 07:18:52;;;;;;;8.13;3.13;;;;;;;7.96;87.75;101074.59;4970190;28;20022;-77
2022/04/25 07:29:32;;;;;;;5.15;2.30;;;;;;;8.47;84.33;101096.69;4960008;28;20099;-78
2022/04/25 07:31:58;;;;;;;6.18;2.33;;;;;;;8.75;84.83;101099.69;4936288;29;20099;-77
2022/04/25 07:34:23;;;;;;;6.78;2.25;;;;;;;8.51;84.68;101107.75;4950921;28;20043;-78
2022/04/25 07:36:53;;;;;;;5.38;2.50;;;;;;;8.54;82.63;101107.50;4939291;28;20030;-77
2022/04/25 07:39:21;;;;;;;4.20;2.47;;;;;;;8.75;84.30;101105.75;4928306;28;20046;-77
2022/04/25 07:41:49;;;;;;;4.30;2.20;;;;;;;8.63;83.01;101103.31;4908759;29;20050;-78
2022/04/25 07:44:15;;;;;;;8.15;2.35;;;;;;;8.64;83.11;101104.97;4937485;28;20038;-78
2022/04/25 07:46:41;;;;;;;6.28;2.50;;;;;;;8.79;83.33;101106.31;4947844;28;20037;-78
2022/04/25 07:49:08;;;;;;;5.63;2.20;;;;;;;9.09;83.11;101109.97;4937358;28;20035;-79
2022/04/25 07:51:33;;;;;;;6.07;2.47;;;;;;;9.14;82.11;101107.81;4937643;28;20106;-78
2022/04/25 07:53:59;;;;;;;3.80;2.40;;;;;;;9.04;83.04;101113.00;4933372;28;20070;-77
2022/04/25 07:56:26;;;;;;;5.57;2.50;;;;;;;9.29;81.05;101116.19;4953555;28;20066;-79
2022/04/25 07:58:52;;;;;;;5.50;2.47;;;;;;;9.24;82.18;101116.56;4958107;28;20297;-79
2022/04/25 08:01:17;;;;;;;8.48;2.70;;;;;;;9.50;81.32;101109.13;4953196;28;20212;-79
2022/04/25 08:03:43;;;;;;;7.60;2.80;;;;;;;9.59;80.85;101127.63;4952816;28;20126;-81
2022/04/25 08:06:11;;;;;;;6.68;2.63;;;;;;;9.79;78.99;101123.31;4963013;28;20489;-77
2022/04/25 08:08:37;;;;;;;6.60;2.38;;;;;;;9.88;80.79;101118.09;4935584;28;20057;-78
2022/04/25 08:11:03;;;;;;;8.10;2.60;;;;;;;9.94;78.26;101121.97;4935287;28;20166;-80
2022/04/25 08:19:00;;;;;;;4.95;2.38;;;;;;;10.31;78.65;101130.09;4936496;29;20034;-78
2022/04/25 08:21:25;;;;;;;5.95;2.38;;;;;;;10.35;77.29;101121.97;4927455;28;20066;-80
2022/04/25 08:23:51;;;;;;;9.68;2.47;;;;;;;10.17;76.75;101134.88;4934201;28;20172;-79
2022/04/25 08:26:17;;;;;;;4.95;2.20;;;;;;;9.84;77.05;101134.22;4966907;28;20037;-78
2022/04/25 08:28:42;;;;;;;5.05;2.00;;;;;;;9.98;79.53;101135.63;4920850;28;20058;-78
2022/04/25 08:31:12;;;;;;;6.22;2.35;;;;;;;9.92;77.54;101142.25;4933297;28;20039;-77
2022/04/25 08:33:38;;;;;;;6.35;2.28;;;;;;;10.14;77.63;101138.59;4931827;28;20049;-78
2022/04/25 08:36:04;;;;;;;5.05;2.13;;;;;;;10.47;77.94;101134.84;4956705;28;20124;-78
2022/04/25 08:38:29;;;;;;;4.70;2.63;;;;;;;10.26;76.23;101152.41;4961839;28;20038;-77
2022/04/25 08:40:57;;;;;;;3.75;2.10;;;;;;;10.15;77.48;101148.09;4935112;28;20477;-78
2022/04/25 08:43:23;;;;;;;6.60;2.70;;;;;;;10.23;76.99;101144.84;4947366;28;20094;-79
2022/04/25 08:45:51;;;;;;;3.92;2.40;;;;;;;10.49;77.83;101146.03;4938814;28;20408;-77
2022/04/25 08:48:17;;;;;;;9.10;2.60;;;;;;;10.59;74.75;101138.16;4923510;28;20169;-78
2022/04/25 08:50:46;;;;;;;8.52;3.58;;;;;;;10.68;75.02;101139.09;4936050;28;20165;-77
2022/04/25 08:53:13;;;;;;;5.05;2.35;;;;;;;10.54;76.09;101150.03;4953903;28;20038;-78
2022/04/25 08:55:39;;;;;;;11.10;2.75;;;;;;;10.63;74.97;101157.91;4933095;28;20408;-78
2022/04/25 08:58:06;;;;;;;5.97;2.38;;;;;;;10.87;75.90;101147.00;4924536;28;20121;-77
2022/04/25 09:00:32;;;;;;;9.07;2.47;;;;;;;11.11;75.82;101148.34;4936860;28;20042;-78
2022/04/25 09:02:59;;;;;;;6.75;2.58;;;;;;;11.25;74.67;101154.97;4934510;28;20402;-79
2022/04/25 09:05:26;;;;;;;6.05;2.88;;;;;;;11.60;74.11;101156.97;4939480;28;20118;-77
2022/04/25 09:07:53;;;;;;;3.90;2.40;;;;;;;11.45;71.14;101158.38;4938923;28;20499;-78
2022/04/25 09:10:21;;;;;;;5.75;2.47;;;;;;;11.65;71.81;101152.09;4954749;28;20508;-79
2022/04/25 09:12:47;;;;;;;6.35;3.08;;;;;;;11.82;72.23;101150.53;4922049;28;20331;-78
2022/04/25 09:15:17;;;;;;;5.68;2.40;;;;;;;12.20;71.26;101153.16;4951773;28;20860;-78
2022/04/25 09:17:43;;;;;;;7.72;2.67;;;;;;;11.95;70.12;101154.66;4932573;28;20047;-78
2022/04/25 09:20:09;;;;;;;6.25;2.28;;;;;;;11.67;71.86;101151.97;4952887;28;20445;-77
2022/04/25 09:22:39;;;;;;;6.95;2.60;;;;;;;11.98;70.48;101157.84;4935818;28;20034;-79
2022/04/25 09:25:16;;;;;;;7.10;2.67;;;;;;;11.99;73.38;101158.66;4943506;28;20060;-79
2022/04/25 09:27:43;;;;;;;7.82;2.70;;;;;;;12.17;70.43;101162.16;4912509;29;20835;-78
2022/04/25 09:30:22;;;;;;;8.32;2.92;;;;;;;12.48;72.37;101158.38;4937089;28;20515;-77
2022/04/25 09:32:51;;;;;;;5.93;2.20;;;;;;;12.55;69.61;101167.34;4940694;28;20041;-77
2022/04/25 09:35:38;;;;;;;5.10;2.22;;;;;;;12.33;68.92;101168.59;4928178;28;20077;-77
2022/04/25 09:38:05;;;;;;;4.68;2.35;;;;;;;12.12;68.98;101172.28;4953348;28;20696;-77
2022/04/25 09:40:33;;;;;;;5.13;2.55;;;;;;;11.69;70.02;101168.41;4969310;28;20039;-77
2022/04/25 09:43:14;;;;;;;9.30;2.88;;;;;;;11.88;71.47;101167.50;4945243;28;20113;-78
2022/04/25 09:45:43;;;;;;;6.20;2.45;;;;;;;12.56;70.75;101168.97;4973469;28;20041;-79
2022/04/25 09:48:10;;;;;;;4.88;2.55;;;;;;;13.01;67.53;101173.34;4933523;28;20039;-79
2022/04/25 09:50:38;;;;;;;3.42;1.85;;;;;;;12.93;66.10;101173.28;4935698;28;20861;-77
2022/04/25 09:53:08;;;;;;;4.03;2.50;;;;;;;12.70;66.02;101180.81;4972363;28;20484;-78
2022/04/25 09:55:38;;;;;;;6.53;2.53;;;;;;;12.53;67.92;101175.38;4939875;28;20035;-76
2022/04/25 09:58:17;;;;;;;6.75;2.92;;;;;;;12.77;71.54;101176.59;4950599;28;20034;-76
2022/04/25 10:00:43;;;;;;;6.65;2.80;;;;;;;13.13;68.37;101169.50;4937954;28;20039;-79
2022/04/25 10:03:10;;;;;;;5.28;2.80;;;;;;;13.21;65.91;101180.09;4922601;28;20039;-77
2022/04/25 10:05:39;;;;;;;7.95;2.70;;;;;;;13.34;66.04;101174.47;4952588;28;20115;-76
2022/04/25 10:08:07;;;;;;;7.47;3.05;;;;;;;13.32;65.29;101170.34;4946690;28;20039;-78
2022/04/25 10:10:33;;;;;;;7.80;2.42;;;;;;;13.61;64.29;101170.03;4932094;28;20046;-79
2022/04/25 10:12:59;;;;;;;7.25;2.60;;;;;;;13.61;63.29;101183.19;4951990;28;20077;-78
2022/04/25 10:15:25;;;;;;;7.10;2.42;;;;;;;13.80;65.82;101184.78;4952554;28;20133;-79
2022/04/25 10:17:54;;;;;;;6.90;3.35;;;;;;;13.56;66.19;101170.50;4940526;28;20117;-78
2022/04/25 10:20:19;;;;;;;3.50;2.50;;;;;;;14.04;63.75;101189.38;4950874;28;20038;-78
2022/04/25 10:22:46;;;;;;;7.75;2.50;;;;;;;14.20;62.96;101181.53;4938220;28;20038;-78
2022/04/25 10:25:12;;;;;;;5.22;2.88;;;;;;;14.47;64.02;101190.16;4964691;28;20357;-78
2022/04/25 10:27:41;;;;;;;8.68;2.95;;;;;;;14.25;63.25;101188.13;4941947;28;20645;-79
2022/04/25 10:30:17;;;;;;;7.18;3.22;;;;;;;14.18;61.60;101194.03;4937969;28;20819;-78
2022/04/25 10:32:43;;;;;;;5.32;2.50;;;;;;;13.74;61.13;101185.41;4935842;28;20543;-79
2022/04/25 10:35:14;;;;;;;3.88;2.47;;;;;;;13.72;64.33;101182.94;4930724;28;20030;-79
2022/04/25 10:37:42;;;;;;;4.97;2.47;;;;;;;14.23;63.42;101190.91;4916500;29;20505;-78
2022/04/25 10:40:10;;;;;;;4.85;2.60;;;;;;;13.96;62.15;101200.69;4937672;28;20044;-80
2022/04/25 10:46:01;;;;;;;3.47;2.33;;;;;;;13.97;59.43;101183.06;4936539;28;20050;-79
2022/04/25 10:48:28;;;;;;;4.80;2.42;;;;;;;14.04;61.45;101185.91;4925705;28;20038;-78
2022/04/25 10:51:16;;;;;;;3.63;2.30;;;;;;;14.12;60.49;101184.09;4941736;28;20046;-78
2022/04/25 10:54:05;;;;;;;6.10;2.35;;;;;;;14.69;63.31;101191.41;4930850;29;20109;-79
2022/04/25 10:56:32;;;;;;;5.00;2.40;;;;;;;14.66;59.32;101191.72;4909033;28;20031;-80
2022/04/25 10:59:27;;;;;;;6.38;2.45;;;;;;;14.76;59.29;101194.22;4953702;28;20205;-79
2022/04/25 11:01:56;;;;;;;4.63;2.50;;;;;;;14.72;57.66;101188.44;4943289;29;20031;-79
2022/04/25 11:04:22;;;;;;;7.80;2.50;;;;;;;14.70;58.45;101190.41;4938648;28;20103;-81
2022/04/25 11:07:08;;;;;;;7.50;2.30;;;;;;;14.38;57.80;101188.50;4938969;28;20343;-83
2022/04/25 11:09:40;;;;;;;4.25;2.42;;;;;;;14.64;58.45;101188.44;4943466;28;20504;-79
2022/04/25 11:12:06;;;;;;;7.75;2.47;;;;;;;14.96;56.10;101189.47;4961227;28;20101;-80
2022/04/25 11:14:32;;;;;;;5.05;2.00;;;;;;;14.88;58.75;101190.28;4936614;28;20076;-79
2022/04/25 11:17:07;;;;;;;3.47;1.95;;;;;;;15.14;56.53;101189.28;4951933;28;20031;-78
2022/04/25 11:19:48;;;;;;;4.43;2.10;;;;;;;15.22;56.42;101196.38;4926636;28;20062;-82
2022/04/25 11:22:46;;;;;;;3.92;1.83;;;;;;;15.37;54.71;101197.38;4952431;28;20042;-77
2022/04/25 11:25:27;;;;;;;3.15;1.95;;;;;;;15.37;55.39;101202.66;4890125;28;20039;-79
2022/04/25 11:28:10;;;;;;;3.10;2.20;;;;;;;15.15;55.03;101196.22;4930237;28;20054;-80
2022/04/25 11:30:37;;;;;;;4.05;2.15;;;;;;;15.34;56.56;101200.34;4943456;28;20439;-81
2022/04/25 11:33:04;;;;;;;4.45;2.40;;;;;;;15.15;54.06;101201.50;4920171;28;20051;-83
2022/04/25 11:35:30;;;;;;;3.35;2.25;;;;;;;15.48;53.63;101207.63;4935745;28;20042;-78
2022/04/25 11:37:57;;;;;;;3.83;2.35;;;;;;;15.43;54.60;101199.34;4952314;28;20499;-77
2022/04/25 11:40:24;;;;;;;5.38;2.38;;;;;;;15.26;53.10;101209.09;4936848;28;20050;-77
2022/04/25 11:42:50;;;;;;;3.88;2.63;;;;;;;15.22;52.83;101212.22;4934471;28;20042;-78
2022/04/25 11:45:16;;;;;;;4.25;1.95;;;;;;;15.53;52.33;101209.75;4934437;28;20038;-77
2022/04/25 11:47:42;;;;;;;4.10;2.20;;;;;;;15.29;53.95;101210.59;4963381;28;20078;-78
2022/04/25 11:50:12;;;;;;;2.95;2.20;;;;;;;15.26;55.31;101218.88;4959823;28;20046;-78